Time;durP1;ratioP1;P1;durP2;ratioP2;P2;SDS_P1;SDS_P2;PMS_P1;PMS_P2;Temp;Humidity;BMP_temperature;BMP_pressure;BME280_temperature;BME280_humidity;BME280_pressure;Samples;Min_cycle;Max_cycle;Signal;HPM_P1;HPM_P2
2022/02/13 00:01:37;;;;;;;13.20;6.22;;;;;;;3.26;55.67;102377.28;5043361;28;20029;-75
2022/02/13 00:04:06;;;;;;;11.48;6.10;;;;;;;3.25;55.77;102372.97;5048727;28;20515;-75
2022/02/13 00:06:31;;;;;;;10.70;5.93;;;;;;;3.23;55.62;102374.97;5046180;28;20489;-75
2022/02/13 00:08:56;;;;;;;14.00;6.13;;;;;;;3.21;55.79;102370.78;5044908;28;20032;-75
2022/02/13 00:11:22;;;;;;;11.55;6.25;;;;;;;3.21;55.96;102373.44;5042652;28;21043;-75
2022/02/13 00:13:48;;;;;;;10.75;5.85;;;;;;;3.20;56.06;102364.66;5030258;28;20085;-76
2022/02/13 00:16:15;;;;;;;11.60;5.75;;;;;;;3.19;55.88;102360.34;5045313;28;20032;-76
2022/02/13 00:18:41;;;;;;;11.50;5.85;;;;;;;3.17;56.43;102358.84;5038907;28;20043;-74
2022/02/13 00:21:06;;;;;;;12.77;5.90;;;;;;;3.13;56.37;102346.94;5043479;28;20029;-76
2022/02/13 00:23:31;;;;;;;8.57;5.88;;;;;;;3.10;56.45;102348.09;5043373;28;20112;-76
2022/02/13 00:25:57;;;;;;;11.10;5.47;;;;;;;3.06;56.70;102337.97;5043873;28;20043;-75
2022/02/13 00:28:22;;;;;;;12.77;6.40;;;;;;;3.02;56.87;102334.78;5042682;28;20082;-75
2022/02/13 00:30:48;;;;;;;10.68;5.82;;;;;;;2.98;56.85;102329.00;5043866;28;20025;-75
2022/02/13 00:33:17;;;;;;;10.60;5.53;;;;;;;2.99;57.23;102327.16;5044100;28;20029;-76
2022/02/13 00:35:45;;;;;;;11.18;6.13;;;;;;;2.99;57.02;102322.69;5045981;28;20097;-75
2022/02/13 00:38:11;;;;;;;12.15;5.80;;;;;;;2.98;57.01;102320.22;5033272;28;20026;-75
2022/02/13 00:40:36;;;;;;;9.27;5.30;;;;;;;2.96;57.16;102315.09;5045583;28;20040;-75
2022/02/13 00:43:02;;;;;;;13.55;6.82;;;;;;;2.93;57.26;102309.28;5043799;28;20171;-75
2022/02/13 00:45:28;;;;;;;16.00;5.88;;;;;;;2.91;57.59;102306.81;5043613;28;20036;-75
2022/02/13 00:47:53;;;;;;;10.07;5.63;;;;;;;2.87;57.60;102310.75;5039078;28;20032;-75
2022/02/13 00:50:19;;;;;;;11.10;5.63;;;;;;;2.83;57.67;102297.97;5046418;28;20032;-75
2022/02/13 00:52:44;;;;;;;11.50;5.95;;;;;;;2.82;57.58;102299.81;5044383;28;20103;-76
2022/02/13 00:55:10;;;;;;;12.40;5.93;;;;;;;2.79;57.83;102305.41;5046368;28;20029;-75
2022/02/13 00:57:35;;;;;;;16.00;6.22;;;;;;;2.73;58.23;102298.94;5035054;28;20039;-75
2022/02/13 01:00:02;;;;;;;11.30;6.30;;;;;;;2.63;58.55;102290.28;5044307;28;21781;-75
2022/02/13 01:02:27;;;;;;;11.85;6.18;;;;;;;2.56;58.39;102289.28;5045762;28;20032;-75
2022/02/13 01:04:53;;;;;;;11.73;6.38;;;;;;;2.56;58.49;102288.44;5043949;28;20025;-75
2022/02/13 01:07:18;;;;;;;11.38;6.28;;;;;;;2.55;58.80;102279.69;5047274;28;20484;-75
2022/02/13 01:09:44;;;;;;;13.30;6.07;;;;;;;2.52;58.80;102280.00;5048073;28;20029;-75
2022/02/13 01:12:10;;;;;;;10.07;5.35;;;;;;;2.48;58.87;102278.63;5035854;28;20089;-76
2022/02/13 01:14:35;;;;;;;12.15;6.15;;;;;;;2.42;59.53;102273.97;5045544;28;20028;-75
2022/02/13 01:17:00;;;;;;;12.10;6.35;;;;;;;2.41;59.15;102280.25;5047142;28;20379;-75
2022/02/13 01:19:27;;;;;;;13.00;6.10;;;;;;;2.40;59.53;102274.13;5044286;28;20095;-75
2022/02/13 01:21:52;;;;;;;14.90;5.90;;;;;;;2.39;59.79;102272.47;5044291;28;20032;-75
2022/02/13 01:24:18;;;;;;;10.23;6.32;;;;;;;2.34;60.00;102274.78;5043639;28;20025;-75
2022/02/13 01:26:43;;;;;;;10.40;6.32;;;;;;;2.34;59.74;102271.31;5045873;28;20087;-75
2022/02/13 01:29:08;;;;;;;11.88;6.05;;;;;;;2.35;60.00;102265.03;5043631;28;20016;-75
2022/02/13 01:31:36;;;;;;;11.48;5.78;;;;;;;2.33;60.13;102275.72;5055631;28;20094;-75
2022/02/13 01:34:02;;;;;;;9.98;5.28;;;;;;;2.34;60.34;102273.94;5044724;28;20058;-75
2022/02/13 01:36:28;;;;;;;10.93;5.45;;;;;;;2.30;60.14;102265.47;5042617;28;20574;-75
2022/02/13 01:38:53;;;;;;;12.38;6.28;;;;;;;2.24;60.14;102260.00;5042837;28;20028;-75
2022/02/13 01:41:19;;;;;;;12.65;6.70;;;;;;;2.16;60.99;102254.66;5032963;28;20151;-75
2022/02/13 01:43:45;;;;;;;10.95;6.60;;;;;;;2.10;61.55;102250.81;5045553;28;20115;-75
2022/02/13 01:46:10;;;;;;;13.40;6.25;;;;;;;2.06;61.54;102247.66;5045857;28;20128;-75
2022/02/13 01:48:36;;;;;;;13.68;5.90;;;;;;;2.04;61.57;102248.78;5044085;28;20033;-75
2022/02/13 01:51:02;;;;;;;10.90;5.68;;;;;;;2.05;61.52;102245.16;5046155;28;20609;-75
2022/02/13 01:53:28;;;;;;;13.70;6.45;;;;;;;2.07;61.45;102244.03;5045387;28;20123;-75
2022/02/13 01:55:54;;;;;;;10.40;6.10;;;;;;;2.09;61.29;102239.41;5045640;28;20032;-75
2022/02/13 01:58:19;;;;;;;11.77;6.07;;;;;;;2.12;61.01;102243.53;5046803;28;20078;-75
2022/02/13 02:00:45;;;;;;;10.25;5.70;;;;;;;2.11;61.52;102237.44;5041478;28;20043;-75
2022/02/13 02:03:10;;;;;;;13.40;7.38;;;;;;;2.13;61.44;102235.44;5045497;28;20017;-76
2022/02/13 02:05:36;;;;;;;13.57;6.07;;;;;;;2.11;61.29;102229.50;5045353;28;20711;-75
2022/02/13 02:08:02;;;;;;;12.48;6.38;;;;;;;2.07;61.24;102230.81;5057448;28;20024;-75
2022/02/13 02:10:27;;;;;;;12.25;6.15;;;;;;;2.06;61.51;102221.22;5054345;28;20120;-75
2022/02/13 02:12:53;;;;;;;10.00;6.22;;;;;;;2.08;61.22;102218.41;5043509;28;20099;-74
2022/02/13 02:15:18;;;;;;;10.45;6.00;;;;;;;2.05;61.56;102216.91;5045675;28;20393;-75
2022/02/13 02:17:44;;;;;;;12.18;6.72;;;;;;;2.03;61.42;102221.53;5046078;28;20024;-75
2022/02/13 02:20:11;;;;;;;10.30;5.47;;;;;;;2.03;61.48;102216.25;5048026;28;20040;-75
2022/02/13 02:22:37;;;;;;;11.40;6.00;;;;;;;2.02;61.34;102206.66;5043921;28;20390;-75
2022/02/13 02:25:03;;;;;;;11.52;5.88;;;;;;;2.03;61.47;102205.66;5038834;28;20032;-75
2022/02/13 02:27:29;;;;;;;11.05;5.88;;;;;;;2.02;61.28;102198.72;5041984;28;20498;-75
2022/02/13 02:29:54;;;;;;;12.48;5.88;;;;;;;2.02;61.39;102198.72;5044398;28;20053;-75
2022/02/13 02:32:19;;;;;;;11.57;7.13;;;;;;;2.01;61.59;102198.88;5042979;28;20033;-75
2022/02/13 02:34:45;;;;;;;11.13;6.45;;;;;;;1.98;61.49;102196.56;5036211;28;20674;-75
2022/02/13 02:37:10;;;;;;;10.32;6.10;;;;;;;1.96;61.89;102187.94;5043600;28;20474;-75
2022/02/13 02:39:37;;;;;;;13.20;6.30;;;;;;;1.87;61.90;102189.69;5044618;28;20029;-75
2022/02/13 02:42:04;;;;;;;20.80;6.30;;;;;;;1.80;62.26;102184.22;5045332;28;20036;-75
2022/02/13 02:44:31;;;;;;;13.65;6.10;;;;;;;1.77;62.34;102173.09;5033272;28;20028;-75
2022/02/13 02:46:57;;;;;;;14.93;6.65;;;;;;;1.73;62.29;102171.75;5045867;28;20031;-75
2022/02/13 02:49:22;;;;;;;12.85;6.82;;;;;;;1.69;62.38;102170.44;5046367;28;20045;-75
2022/02/13 02:51:48;;;;;;;15.27;6.28;;;;;;;1.67;62.77;102167.94;5046576;28;20029;-75
2022/02/13 02:54:13;;;;;;;12.52;6.70;;;;;;;1.63;62.70;102163.13;5048671;28;20034;-75
2022/02/13 02:56:39;;;;;;;13.00;7.03;;;;;;;1.58;63.17;102160.09;5046883;28;20112;-75
2022/02/13 02:59:04;;;;;;;16.63;6.97;;;;;;;1.58;62.96;102157.47;5045905;28;20032;-75
2022/02/13 03:01:30;;;;;;;10.32;6.03;;;;;;;1.60;63.03;102171.34;5050005;28;20032;-75
2022/02/13 03:03:55;;;;;;;13.00;7.03;;;;;;;1.60;62.88;102171.34;5048762;28;20450;-75
2022/02/13 03:06:21;;;;;;;11.98;6.72;;;;;;;1.59;62.81;102164.41;5036111;28;20059;-75
2022/02/13 03:08:46;;;;;;;10.63;5.97;;;;;;;1.60;63.04;102160.78;5050012;28;20144;-74
2022/02/13 03:11:12;;;;;;;11.43;5.95;;;;;;;1.60;62.91;102160.78;5049493;28;20028;-75
2022/02/13 03:13:38;;;;;;;16.02;6.82;;;;;;;1.62;62.66;102164.13;5049834;28;20594;-75
2022/02/13 03:16:04;;;;;;;12.55;6.80;;;;;;;1.61;62.96;102152.69;5048579;28;20040;-75
2022/02/13 03:18:30;;;;;;;12.60;6.78;;;;;;;1.59;63.00;102148.53;5052803;28;20025;-75
2022/02/13 03:20:58;;;;;;;10.68;6.75;;;;;;;1.59;63.02;102152.00;5060132;28;20128;-75
2022/02/13 03:23:24;;;;;;;14.75;8.13;;;;;;;1.59;63.01;102143.25;5047525;28;20020;-75
2022/02/13 03:25:49;;;;;;;13.85;7.20;;;;;;;1.59;63.04;102151.19;5048951;28;20017;-75
2022/02/13 03:28:15;;;;;;;14.98;6.65;;;;;;;1.58;63.24;102142.44;5047129;28;20148;-74
2022/02/13 03:30:41;;;;;;;14.80;6.50;;;;;;;1.56;63.00;102139.13;5058934;28;20063;-75
2022/02/13 03:33:07;;;;;;;14.40;6.70;;;;;;;1.55;62.88;102140.09;5046012;28;20052;-75
2022/02/13 03:35:33;;;;;;;12.90;6.75;;;;;;;1.55;63.14;102126.91;5047407;28;20033;-75
2022/02/13 03:37:59;;;;;;;11.70;6.22;;;;;;;1.55;63.18;102132.19;5049733;28;20045;-75
2022/02/13 03:40:25;;;;;;;14.70;8.25;;;;;;;1.55;63.14;102120.78;5047415;28;20032;-75
2022/02/13 03:42:51;;;;;;;10.15;7.00;;;;;;;1.52;63.19;102117.47;5045842;28;20032;-75
2022/02/13 03:45:16;;;;;;;12.48;6.47;;;;;;;1.51;63.24;102118.47;5044508;28;20025;-75
2022/02/13 03:47:43;;;;;;;13.50;7.00;;;;;;;1.49;63.09;102119.59;5047785;28;20035;-75
2022/02/13 03:50:10;;;;;;;14.25;7.53;;;;;;;1.46;63.19;102122.56;5046571;28;20533;-75
2022/02/13 03:52:35;;;;;;;13.55;6.90;;;;;;;1.45;63.74;102123.53;5045703;28;20108;-75
2022/02/13 03:55:01;;;;;;;15.82;7.10;;;;;;;1.44;63.77;102120.06;5046307;28;20039;-75
2022/02/13 03:57:30;;;;;;;16.02;7.10;;;;;;;1.43;63.77;102110.47;5049653;28;20028;-75
2022/02/13 03:59:56;;;;;;;11.68;6.75;;;;;;;1.45;63.64;102107.69;5045763;28;20038;-75
2022/02/13 04:02:22;;;;;;;13.75;6.57;;;;;;;1.45;63.68;102116.44;5042690;28;20029;-75
2022/02/13 04:04:49;;;;;;;12.40;7.47;;;;;;;1.45;63.51;102118.25;5044860;28;20017;-75
2022/02/13 04:07:14;;;;;;;14.68;7.10;;;;;;;1.44;63.81;102106.88;5044809;28;20020;-75
2022/02/13 04:09:40;;;;;;;15.75;8.75;;;;;;;1.42;63.53;102098.25;5063803;22;20519;-76
2022/02/13 04:12:06;;;;;;;13.48;7.20;;;;;;;1.43;63.62;102096.44;5046637;28;20040;-76
2022/02/13 04:14:31;;;;;;;14.05;6.97;;;;;;;1.43;63.76;102091.16;5050095;28;20021;-76
2022/02/13 04:16:57;;;;;;;12.90;6.28;;;;;;;1.43;63.90;102091.97;5049411;28;20051;-76
2022/02/13 04:19:22;;;;;;;12.20;6.10;;;;;;;1.42;63.87;102085.03;5056146;28;20104;-76
2022/02/13 04:21:48;;;;;;;14.40;6.55;;;;;;;1.41;63.90;102078.09;5049714;28;20525;-76
2022/02/13 04:24:13;;;;;;;12.55;6.35;;;;;;;1.40;64.04;102080.91;5051864;28;20020;-74
2022/02/13 04:26:40;;;;;;;12.95;6.72;;;;;;;1.37;64.01;102087.31;5057240;28;20497;-74
2022/02/13 04:29:06;;;;;;;15.70;6.88;;;;;;;1.35;64.08;102084.00;5055536;28;20098;-75
2022/02/13 04:31:32;;;;;;;14.10;7.22;;;;;;;1.35;64.19;102077.91;5051264;28;20030;-75
2022/02/13 04:33:58;;;;;;;12.38;6.38;;;;;;;1.34;64.06;102070.97;5046059;28;20382;-75
2022/02/13 04:36:23;;;;;;;11.90;6.35;;;;;;;1.32;64.05;102076.41;5054550;28;20036;-75
2022/02/13 04:38:49;;;;;;;15.88;7.18;;;;;;;1.31;64.06;102066.84;5049313;28;20028;-75
2022/02/13 04:41:14;;;;;;;11.70;7.00;;;;;;;1.32;64.26;102059.75;5073187;28;20028;-76
2022/02/13 04:43:40;;;;;;;14.98;7.00;;;;;;;1.30;64.26;102053.78;5051303;28;20017;-76
2022/02/13 04:46:05;;;;;;;12.95;7.50;;;;;;;1.28;64.34;102046.03;5047971;28;20028;-76
2022/02/13 04:48:31;;;;;;;14.95;7.35;;;;;;;1.28;64.34;102053.13;5050034;28;20112;-76
2022/02/13 04:50:56;;;;;;;15.82;7.40;;;;;;;1.25;64.35;102051.59;5049246;28;20851;-76
2022/02/13 04:53:22;;;;;;;12.90;6.60;;;;;;;1.24;64.59;102042.00;5053867;28;20059;-75
2022/02/13 04:55:47;;;;;;;14.70;7.60;;;;;;;1.18;64.71;102035.56;5053848;28;20025;-76
2022/02/13 04:58:13;;;;;;;10.77;5.90;;;;;;;1.17;64.56;102038.34;5052552;28;20600;-76
2022/02/13 05:00:38;;;;;;;15.63;7.55;;;;;;;1.13;64.68;102022.00;5052263;28;20021;-76
2022/02/13 05:03:04;;;;;;;13.38;7.20;;;;;;;1.13;64.58;102022.00;5045412;28;20040;-76
2022/02/13 05:05:29;;;;;;;14.93;7.85;;;;;;;1.08;65.05;102008.44;5044284;28;20071;-76
2022/02/13 05:07:54;;;;;;;13.90;6.57;;;;;;;1.05;65.40;102011.38;5049815;28;20025;-76
2022/02/13 05:10:20;;;;;;;13.05;7.10;;;;;;;1.05;65.13;102007.91;5068148;28;20021;-76
2022/02/13 05:12:45;;;;;;;14.07;6.90;;;;;;;1.03;65.00;102009.88;5049774;28;20056;-76
2022/02/13 05:15:11;;;;;;;12.40;6.60;;;;;;;1.03;64.88;102013.34;5048549;28;20078;-76
2022/02/13 05:17:37;;;;;;;14.00;6.40;;;;;;;0.97;65.61;102000.78;5053662;28;20389;-76
2022/02/13 05:20:06;;;;;;;11.82;6.53;;;;;;;0.94;65.91;102013.44;5047965;28;20040;-76
2022/02/13 05:22:32;;;;;;;16.33;6.28;;;;;;;0.94;65.49;102013.44;5041877;28;20017;-76
2022/02/13 05:24:58;;;;;;;14.25;6.97;;;;;;;0.90;66.07;102008.50;5052695;28;20471;-76
2022/02/13 05:27:23;;;;;;;12.95;7.72;;;;;;;0.90;65.83;102005.84;5048897;28;20021;-76
2022/02/13 05:29:49;;;;;;;12.38;6.53;;;;;;;0.88;66.50;102002.50;5054364;28;20027;-76
2022/02/13 05:32:14;;;;;;;11.85;6.82;;;;;;;0.88;66.20;101999.03;5047599;28;20390;-76
2022/02/13 05:34:40;;;;;;;14.27;6.97;;;;;;;0.85;66.29;101994.91;5047502;28;20063;-75
2022/02/13 05:37:06;;;;;;;15.70;7.25;;;;;;;0.83;66.75;101988.13;5047361;28;20033;-76
2022/02/13 05:39:31;;;;;;;13.60;6.55;;;;;;;0.81;66.66;101993.56;5049055;28;20028;-76
2022/02/13 05:41:57;;;;;;;13.63;6.57;;;;;;;0.79;66.79;101992.88;5053527;28;20060;-76
2022/02/13 05:44:23;;;;;;;15.73;7.22;;;;;;;0.80;66.64;101988.44;5052080;28;20017;-76
2022/02/13 05:46:49;;;;;;;14.65;7.35;;;;;;;0.82;66.50;101991.75;5062216;28;20103;-76
2022/02/13 05:49:14;;;;;;;13.55;7.10;;;;;;;0.80;66.86;101996.34;5048147;28;20106;-76
2022/02/13 05:51:40;;;;;;;17.17;7.75;;;;;;;0.81;66.84;101995.38;5055950;28;20020;-76
2022/02/13 05:54:06;;;;;;;12.93;7.53;;;;;;;0.80;67.06;101983.16;5055709;28;20078;-76
2022/02/13 05:56:32;;;;;;;11.93;6.43;;;;;;;0.83;66.79;101981.03;5047933;28;20025;-75
2022/02/13 05:58:57;;;;;;;13.82;6.93;;;;;;;0.84;66.91;101964.22;5047382;28;20067;-76
2022/02/13 06:01:23;;;;;;;14.05;6.80;;;;;;;0.84;66.41;101963.41;5054379;28;20111;-75
2022/02/13 06:03:48;;;;;;;16.05;7.03;;;;;;;0.81;66.80;101964.53;5050061;28;20049;-76
2022/02/13 06:06:14;;;;;;;16.25;7.47;;;;;;;0.79;67.10;101963.03;5044447;28;20135;-75
2022/02/13 06:08:41;;;;;;;12.48;7.10;;;;;;;0.78;66.95;101958.75;5047989;28;20060;-75
2022/02/13 06:11:07;;;;;;;14.05;6.75;;;;;;;0.73;66.97;101959.22;5044950;28;20067;-76
2022/02/13 06:13:34;;;;;;;12.77;6.95;;;;;;;0.72;67.12;101949.66;5062973;28;20108;-75
2022/02/13 06:16:01;;;;;;;15.20;6.93;;;;;;;0.69;67.95;101954.38;5047289;28;20033;-76
2022/02/13 06:18:28;;;;;;;14.00;7.28;;;;;;;0.70;67.65;101942.84;5049340;28;20025;-76
2022/02/13 06:20:53;;;;;;;12.40;6.40;;;;;;;0.68;67.92;101943.00;5054307;28;20082;-75
2022/02/13 06:23:19;;;;;;;17.02;7.82;;;;;;;0.70;67.71;101934.94;5049511;28;20029;-76
2022/02/13 06:25:45;;;;;;;13.30;7.05;;;;;;;0.68;67.39;101939.53;5050078;28;20025;-75
2022/02/13 06:28:10;;;;;;;13.00;6.63;;;;;;;0.65;67.25;101932.78;5046453;28;20626;-75
2022/02/13 06:30:36;;;;;;;14.40;7.85;;;;;;;0.62;67.84;101938.34;5051303;28;20035;-75
2022/02/13 06:33:03;;;;;;;11.73;6.88;;;;;;;0.65;67.43;101942.50;5047742;28;20111;-75
2022/02/13 06:35:30;;;;;;;15.68;7.80;;;;;;;0.63;67.57;101944.44;5045902;28;20064;-76
2022/02/13 06:37:55;;;;;;;11.50;6.45;;;;;;;0.68;67.08;101940.38;5069443;28;20029;-76
2022/02/13 06:40:21;;;;;;;15.13;7.00;;;;;;;0.65;67.50;101937.22;5052066;28;20017;-76
2022/02/13 06:42:46;;;;;;;12.20;6.90;;;;;;;0.62;67.40;101932.25;5050817;28;20021;-75
2022/02/13 06:45:12;;;;;;;11.55;7.30;;;;;;;0.65;67.46;101938.03;5048236;28;20082;-75
2022/02/13 06:47:37;;;;;;;14.18;7.25;;;;;;;0.68;67.66;101934.25;5046837;28;20426;-76
2022/02/13 06:50:03;;;;;;;14.60;7.18;;;;;;;0.66;67.69;101934.41;5049217;28;20024;-76
2022/02/13 06:52:29;;;;;;;12.75;6.95;;;;;;;0.68;67.63;101937.72;5044446;28;20057;-75
2022/02/13 06:54:54;;;;;;;12.60;6.85;;;;;;;0.75;67.38;101927.41;5049197;28;20104;-75
2022/02/13 06:57:20;;;;;;;13.82;7.55;;;;;;;0.75;67.13;101922.97;5064564;28;20579;-75
2022/02/13 06:59:45;;;;;;;13.27;7.07;;;;;;;0.74;67.61;101923.13;5056496;28;20031;-75
2022/02/13 07:02:11;;;;;;;13.75;7.10;;;;;;;0.76;67.54;101913.22;5045884;28;20029;-76
2022/02/13 07:04:38;;;;;;;12.85;7.47;;;;;;;0.75;67.70;101912.41;5044779;28;20049;-76
2022/02/13 07:07:08;;;;;;;12.48;7.25;;;;;;;0.80;67.62;101915.41;5057619;28;20029;-76
2022/02/13 07:09:34;;;;;;;18.58;6.72;;;;;;;0.80;67.80;101906.66;5046186;28;20116;-75
2022/02/13 07:12:05;;;;;;;12.32;7.28;;;;;;;0.80;67.90;101910.13;5050462;28;20565;-75
2022/02/13 07:14:33;;;;;;;11.45;6.47;;;;;;;0.76;67.79;101908.78;5045237;28;20103;-75
2022/02/13 07:17:00;;;;;;;15.80;7.32;;;;;;;0.75;67.96;101909.78;5038272;28;20090;-75
2022/02/13 07:19:26;;;;;;;16.05;7.05;;;;;;;0.76;67.83;101907.97;5047927;28;20035;-76
2022/02/13 07:21:51;;;;;;;14.90;6.65;;;;;;;0.75;68.32;101904.50;5046194;28;20024;-76
2022/02/13 07:24:17;;;;;;;12.60;7.03;;;;;;;0.74;68.47;101902.84;5043417;28;20021;-76
2022/02/13 07:26:43;;;;;;;11.98;6.55;;;;;;;0.78;68.28;101909.44;5046488;28;20025;-76
2022/02/13 07:29:09;;;;;;;11.27;6.50;;;;;;;0.77;68.63;101899.06;5047625;28;20490;-76
2022/02/13 07:31:36;;;;;;;11.38;6.57;;;;;;;0.78;68.93;101890.97;5052587;28;20119;-75
2022/02/13 07:34:06;;;;;;;12.35;6.97;;;;;;;0.85;68.55;101897.28;5041150;28;20017;-76
2022/02/13 07:36:34;;;;;;;12.63;6.70;;;;;;;0.88;68.87;101896.97;5048497;28;20532;-76
2022/02/13 07:39:00;;;;;;;15.70;7.18;;;;;;;0.92;68.88;101880.84;5060157;28;20025;-76
2022/02/13 07:41:26;;;;;;;12.27;6.63;;;;;;;0.97;68.85;101878.56;5056743;28;20039;-76
2022/02/13 07:43:52;;;;;;;11.70;5.82;;;;;;;1.05;68.36;101876.75;5069178;28;20984;-76
2022/02/13 07:46:18;;;;;;;13.00;7.00;;;;;;;1.14;68.61;101873.19;5054403;28;20512;-76
2022/02/13 07:48:46;;;;;;;10.88;6.13;;;;;;;1.26;68.47;101870.25;5064645;28;20052;-76
2022/02/13 07:51:12;;;;;;;11.75;6.95;;;;;;;1.35;68.03;101870.13;5056925;28;20592;-76
2022/02/13 07:53:39;;;;;;;13.07;6.47;;;;;;;1.46;68.21;101861.91;5052691;28;20480;-76
2022/02/13 07:56:05;;;;;;;10.57;6.32;;;;;;;1.45;68.47;101862.91;5054060;28;20020;-76
2022/02/13 07:58:34;;;;;;;10.05;6.10;;;;;;;1.54;68.12;101850.53;5067229;28;20029;-76
2022/02/13 08:01:00;;;;;;;12.70;6.07;;;;;;;1.62;67.86;101860.31;5051029;28;20032;-76
2022/02/13 08:03:27;;;;;;;11.00;6.45;;;;;;;1.68;68.03;101862.28;5046423;28;20031;-76
2022/02/13 08:05:52;;;;;;;11.35;6.07;;;;;;;1.76;67.69;101859.66;5049025;28;20037;-76
2022/02/13 08:08:18;;;;;;;14.85;5.90;;;;;;;1.86;67.15;101872.72;5044923;28;20516;-76
2022/02/13 08:10:44;;;;;;;10.98;6.32;;;;;;;1.95;67.39;101872.56;5066455;28;20020;-76
2022/02/13 08:13:09;;;;;;;11.10;6.22;;;;;;;2.06;67.24;101861.66;5049250;28;20495;-76
2022/02/13 08:15:35;;;;;;;10.05;5.95;;;;;;;2.11;66.92;101864.63;5049303;28;20597;-76
2022/02/13 08:18:08;;;;;;;15.35;6.53;;;;;;;2.17;66.93;101859.69;5060764;28;20029;-76
2022/02/13 08:20:34;;;;;;;11.32;6.10;;;;;;;2.28;66.45;101872.56;5041510;28;20025;-76
2022/02/13 08:23:00;;;;;;;14.07;6.63;;;;;;;2.34;66.36;101866.63;5057148;28;20128;-76
2022/02/13 08:25:26;;;;;;;11.35;6.05;;;;;;;2.50;66.23;101874.53;5051547;28;20485;-76
2022/02/13 08:27:51;;;;;;;11.30;6.22;;;;;;;2.63;65.86;101871.38;5053500;28;20063;-76
2022/02/13 08:30:17;;;;;;;10.02;5.82;;;;;;;2.77;65.68;101877.81;5055999;28;20087;-76
2022/02/13 08:32:42;;;;;;;9.90;5.70;;;;;;;2.81;65.33;101876.47;5070164;28;20067;-77
2022/02/13 08:35:08;;;;;;;12.75;6.10;;;;;;;2.92;65.32;101873.47;5050744;28;20029;-76
2022/02/13 08:37:33;;;;;;;11.88;5.63;;;;;;;3.00;64.88;101868.13;5049755;28;20021;-76
2022/02/13 08:39:59;;;;;;;9.30;5.13;;;;;;;2.98;64.97;101862.19;5054808;28;20029;-77
2022/02/13 08:42:25;;;;;;;9.50;5.35;;;;;;;3.00;65.02;101865.47;5049015;28;20030;-76
2022/02/13 08:44:50;;;;;;;9.60;6.07;;;;;;;3.01;65.07;101864.47;5050179;28;20025;-76
2022/02/13 08:47:16;;;;;;;12.07;5.97;;;;;;;3.06;65.03;101864.00;5049691;28;20033;-76
2022/02/13 08:49:42;;;;;;;11.90;5.95;;;;;;;3.16;64.76;101873.38;5046606;28;20155;-76
2022/02/13 08:52:10;;;;;;;10.25;5.50;;;;;;;3.26;64.71;101876.66;5047177;28;20048;-74
2022/02/13 08:54:36;;;;;;;12.07;6.03;;;;;;;3.35;64.29;101880.06;5047883;28;20086;-76
2022/02/13 08:57:02;;;;;;;10.95;6.05;;;;;;;3.43;64.01;101882.69;5048436;28;20034;-75
2022/02/13 08:59:27;;;;;;;11.10;5.93;;;;;;;3.52;63.93;101871.03;5047888;28;20052;-75
2022/02/13 09:01:53;;;;;;;11.25;5.47;;;;;;;3.61;64.24;101870.00;5048136;28;20036;-75
2022/02/13 09:04:18;;;;;;;11.13;6.00;;;;;;;3.67;63.65;101879.06;5047679;28;20028;-76
2022/02/13 09:06:44;;;;;;;10.63;5.57;;;;;;;3.76;63.72;101878.00;5042048;28;20021;-74
2022/02/13 09:09:09;;;;;;;11.93;6.00;;;;;;;3.85;63.41;101881.44;5051360;28;20033;-75
2022/02/13 09:11:38;;;;;;;12.10;5.55;;;;;;;3.91;63.57;101878.91;5059851;28;20501;-75
2022/02/13 09:14:04;;;;;;;11.48;6.25;;;;;;;4.00;62.89;101876.22;5047737;28;20050;-75
2022/02/13 09:16:33;;;;;;;10.38;5.65;;;;;;;4.04;62.83;101873.03;5046417;28;20029;-74
2022/02/13 09:18:59;;;;;;;13.57;5.82;;;;;;;4.08;62.51;101870.84;5049212;28;20028;-75
2022/02/13 09:21:24;;;;;;;12.13;5.53;;;;;;;4.06;62.93;101856.94;5056163;28;20467;-75
2022/02/13 09:23:50;;;;;;;10.55;5.97;;;;;;;4.08;62.83;101854.91;5046967;28;20138;-77
2022/02/13 09:26:17;;;;;;;9.35;5.80;;;;;;;4.12;62.45;101856.22;5050463;28;20032;-76
2022/02/13 09:28:43;;;;;;;11.75;5.93;;;;;;;4.18;62.45;101855.50;5048811;28;20111;-77
2022/02/13 09:31:08;;;;;;;15.43;5.95;;;;;;;4.25;62.51;101848.47;5047480;28;20071;-77
2022/02/13 09:33:35;;;;;;;8.45;5.70;;;;;;;4.22;61.85;101848.84;5043135;28;20065;-77
2022/02/13 09:36:01;;;;;;;10.23;5.50;;;;;;;4.14;62.28;101844.44;5047103;28;20025;-78
2022/02/13 09:38:43;;;;;;;;;;;;;;;;;;;;;
2022/02/13 09:41:09;;;;;;;10.57;4.70;;;;;;;4.08;62.16;101836.34;5046854;28;20386;-77
2022/02/13 09:43:34;;;;;;;9.52;5.18;;;;;;;4.16;62.35;101831.00;5047783;28;20039;-78
2022/02/13 09:46:00;;;;;;;12.48;5.50;;;;;;;4.25;62.16;101829.91;5045626;28;20107;-77
2022/02/13 09:48:28;;;;;;;8.80;4.72;;;;;;;4.35;62.23;101825.19;5042122;28;20021;-78
2022/02/13 09:50:55;;;;;;;13.35;5.93;;;;;;;4.47;61.92;101823.72;5042315;28;20040;-80
2022/02/13 09:53:21;;;;;;;10.63;5.68;;;;;;;4.59;61.77;101812.66;5046057;28;20041;-79
2022/02/13 09:55:47;;;;;;;10.77;5.28;;;;;;;4.63;61.36;101800.66;5049177;28;20108;-73
2022/02/13 09:58:14;;;;;;;12.57;6.15;;;;;;;4.70;61.27;101798.94;5044812;28;20033;-73
2022/02/13 10:01:30;;;;;;;17.30;5.55;;;;;;;4.89;61.33;101813.50;5040095;28;20119;-80
2022/02/13 10:03:55;;;;;;;10.02;5.70;;;;;;;4.98;60.95;101810.53;5054917;28;20082;-78
2022/02/13 10:06:23;;;;;;;9.70;5.38;;;;;;;5.09;60.70;101807.41;5052130;28;20116;-84
2022/02/13 10:08:56;;;;;;;10.60;5.60;;;;;;;5.12;60.21;101807.03;5070235;28;20040;-83
2022/02/13 10:11:25;;;;;;;11.02;5.60;;;;;;;5.23;60.28;101799.59;5084753;22;20051;-80
2022/02/13 10:14:12;;;;;;;9.00;5.63;;;;;;;5.30;59.99;101790.69;5052156;28;20028;-81
2022/02/13 10:16:40;;;;;;;8.57;4.68;;;;;;;5.31;59.78;101794.16;5043431;28;20639;-80
2022/02/13 10:19:09;;;;;;;7.32;4.55;;;;;;;5.30;59.70;101782.72;5040746;28;20554;-79
2022/02/13 10:21:39;;;;;;;8.80;4.53;;;;;;;5.35;59.68;101784.81;5022955;28;20033;-80
2022/02/13 10:24:14;;;;;;;9.23;4.80;;;;;;;5.44;59.33;101781.03;5018291;28;20138;-79
2022/02/13 10:26:40;;;;;;;7.72;4.78;;;;;;;5.63;59.18;101784.91;5048861;28;20489;-79
2022/02/13 10:29:06;;;;;;;9.52;5.10;;;;;;;5.80;59.15;101785.47;5024026;28;20112;-79
2022/02/13 10:31:32;;;;;;;9.73;5.50;;;;;;;5.90;58.90;101778.00;5022375;28;20036;-79
2022/02/13 10:33:59;;;;;;;6.57;4.57;;;;;;;5.96;58.55;101774.59;5016915;28;20076;-79
2022/02/13 10:36:25;;;;;;;9.93;5.25;;;;;;;5.98;58.23;101773.38;5028651;28;20029;-78
2022/02/13 10:38:51;;;;;;;9.38;5.18;;;;;;;6.02;58.44;101771.16;5027536;28;20176;-79
2022/02/13 10:41:19;;;;;;;7.72;5.45;;;;;;;6.11;58.40;101763.84;5027811;28;20510;-79
2022/02/13 10:43:51;;;;;;;7.20;4.63;;;;;;;6.10;57.36;101768.31;5030531;28;20068;-78
2022/02/13 10:46:18;;;;;;;8.48;4.65;;;;;;;6.21;57.94;101761.66;5024635;28;20030;-79
2022/02/13 10:48:45;;;;;;;7.60;4.47;;;;;;;6.37;57.93;101766.69;5016279;28;20037;-78
2022/02/13 10:51:12;;;;;;;8.07;4.78;;;;;;;6.49;57.43;101745.69;5027460;28;20240;-79
2022/02/13 10:53:39;;;;;;;10.15;4.25;;;;;;;6.62;57.55;101745.72;5022985;28;20064;-78
2022/02/13 10:56:06;;;;;;;8.10;5.03;;;;;;;6.70;56.77;101737.56;5029067;28;20035;-78
2022/02/13 10:58:31;;;;;;;11.23;5.45;;;;;;;6.75;56.97;101736.97;5022584;28;20487;-78
2022/02/13 11:00:59;;;;;;;9.38;4.40;;;;;;;6.80;56.64;101729.19;5028275;28;20057;-79
2022/02/13 11:03:25;;;;;;;7.65;3.90;;;;;;;6.86;56.58;101721.25;5023282;28;20076;-78
2022/02/13 11:05:52;;;;;;;7.57;4.68;;;;;;;6.96;56.45;101718.19;5022836;28;20459;-78
2022/02/13 11:08:20;;;;;;;7.22;4.40;;;;;;;7.10;56.53;101727.06;5027350;28;20025;-78
2022/02/13 11:10:57;;;;;;;8.38;4.35;;;;;;;7.12;56.09;101722.34;5029159;28;20487;-78
2022/02/13 11:13:28;;;;;;;7.40;4.72;;;;;;;7.04;55.77;101712.69;5031306;28;20113;-78
2022/02/13 11:15:53;;;;;;;8.30;4.70;;;;;;;7.16;55.99;101713.75;5032844;28;20029;-78
2022/02/13 11:18:22;;;;;;;6.72;4.28;;;;;;;7.27;55.09;101707.00;5031299;28;20056;-78
2022/02/13 11:20:49;;;;;;;7.07;4.55;;;;;;;7.21;53.81;101702.50;5030078;28;20080;-78
2022/02/13 11:23:21;;;;;;;9.07;4.90;;;;;;;7.25;54.82;101704.53;5027219;28;20025;-78